Time,TemperatureF,DewpointF,PressureIn,WindDirection,WindDirectionDegrees,WindSpeedMPH,WindSpeedGustMPH,Humidity,HourlyPrecipIn,Conditions,Clouds,dailyrainin,SoftwareType,DateUTC
2013-10-12 00:13:00,67.0,53.0,29.88,ESE,115,0.0,3.0,61,0.00,,,0.00,,2013-10-12 05:13:00,
2013-10-12 00:23:00,68.0,54.0,29.88,East,99,0.0,4.0,61,0.00,,,0.00,,2013-10-12 05:23:00,
2013-10-12 00:43:00,68.0,54.0,29.88,East,90,1.0,4.0,61,0.00,,,0.00,,2013-10-12 05:43:00,
2013-10-12 00:52:00,68.0,54.0,29.88,ENE,59,0.0,2.0,62,0.00,,,0.00,,2013-10-12 05:52:00,
2013-10-12 01:12:00,68.0,54.0,29.88,South,188,0.0,4.0,62,0.00,,,0.00,,2013-10-12 06:12:00,
2013-10-12 01:22:00,68.0,55.0,29.88,South,180,1.0,5.0,63,0.00,,,0.00,,2013-10-12 06:22:00,
2013-10-12 01:42:00,68.0,55.0,29.88,NNW,341,0.0,2.0,63,0.00,,,0.00,,2013-10-12 06:42:00,
2013-10-12 01:52:00,69.0,56.0,29.88,South,179,1.0,4.0,63,0.00,,,0.00,,2013-10-12 06:52:00,
2013-10-12 02:12:00,69.0,56.0,29.88,SSE,166,1.0,5.0,63,0.00,,,0.00,,2013-10-12 07:12:00,
2013-10-12 02:22:00,68.0,55.0,29.88,ESE,109,1.0,4.0,64,0.00,,,0.00,,2013-10-12 07:22:00,
2013-10-12 02:42:00,68.0,56.0,29.88,South,186,0.0,4.0,65,0.00,,,0.00,,2013-10-12 07:42:00,
2013-10-12 02:52:00,68.0,56.0,29.89,ESE,120,0.0,2.0,66,0.00,,,0.00,,2013-10-12 07:52:00,
2013-10-12 03:12:00,68.0,56.0,29.89,East,101,0.0,2.0,66,0.00,,,0.00,,2013-10-12 08:12:00,
2013-10-12 03:22:00,67.0,56.0,29.88,SE,131,0.0,4.0,67,0.00,,,0.00,,2013-10-12 08:22:00,
2013-10-12 03:52:00,66.0,56.0,29.88,ESE,109,0.0,2.0,69,0.00,,,0.00,,2013-10-12 08:52:00,
2013-10-12 04:21:00,65.0,56.0,29.88,ESE,109,0.0,1.0,72,0.00,,,0.00,,2013-10-12 09:21:00,
2013-10-12 04:54:00,64.0,56.0,29.88,ENE,65,0.0,1.0,74,0.00,,,0.00,,2013-10-12 09:54:00,
2013-10-12 05:12:00,63.0,55.0,29.88,East,91,0.0,2.0,75,0.00,,,0.00,,2013-10-12 10:12:00,
2013-10-12 05:23:00,63.0,55.0,29.88,ESE,109,0.0,1.0,76,0.00,,,0.00,,2013-10-12 10:23:00,
2013-10-12 05:42:00,63.0,56.0,29.88,SSE,163,0.0,2.0,77,0.00,,,0.00,,2013-10-12 10:42:00,
2013-10-12 05:52:00,63.0,56.0,29.89,SSE,165,0.0,1.0,77,0.00,,,0.00,,2013-10-12 10:52:00,
2013-10-12 06:12:00,63.0,56.0,29.89,SSE,165,0.0,1.0,77,0.00,,,0.00,,2013-10-12 11:12:00,
2013-10-12 06:22:00,62.0,55.0,29.90,South,188,0.0,2.0,78,0.00,,,0.00,,2013-10-12 11:22:00,
2013-10-12 06:52:00,63.0,56.0,29.90,WNW,284,0.0,1.0,78,0.00,,,0.00,,2013-10-12 11:52:00,
2013-10-12 07:11:00,63.0,56.0,29.91,WNW,284,0.0,1.0,78,0.00,,,0.00,,2013-10-12 12:11:00,
2013-10-12 07:22:00,62.0,55.0,29.91,WNW,284,0.0,1.0,79,0.00,,,0.00,,2013-10-12 12:22:00,
2013-10-12 07:52:00,63.0,57.0,29.90,West,268,0.0,1.0,80,0.00,,,0.00,,2013-10-12 12:52:00,
2013-10-12 08:11:00,63.0,57.0,29.92,WSW,258,0.0,3.0,80,0.00,,,0.00,,2013-10-12 13:11:00,
2013-10-12 08:21:00,63.0,56.0,29.94,WNW,296,2.0,5.0,79,0.00,,,0.00,,2013-10-12 13:21:00,
2013-10-12 08:42:00,63.0,56.0,29.94,NW,311,1.0,4.0,79,0.00,,,0.00,,2013-10-12 13:42:00,
2013-10-12 08:52:00,64.0,57.0,29.95,NW,311,2.0,3.0,79,0.00,,,0.00,,2013-10-12 13:52:00,
2013-10-12 09:12:00,64.0,57.0,29.97,NW,318,3.0,9.0,77,0.00,,,0.00,,2013-10-12 14:12:00,
2013-10-12 09:21:00,63.0,53.0,29.97,NNW,331,3.0,6.0,71,0.00,,,0.00,,2013-10-12 14:21:00,
2013-10-12 09:42:00,62.0,52.0,29.98,NW,321,2.0,8.0,70,0.00,,,0.00,,2013-10-12 14:42:00,
2013-10-12 09:52:00,61.0,49.0,30.00,NW,325,3.0,8.0,65,0.00,,,0.00,,2013-10-12 14:52:00,
2013-10-12 10:11:00,60.0,47.0,30.00,WNW,290,3.0,9.0,62,0.00,,,0.00,,2013-10-12 15:11:00,
2013-10-12 10:22:00,60.0,48.0,30.01,WNW,303,1.0,8.0,64,0.00,,,0.00,,2013-10-12 15:22:00,
2013-10-12 10:43:00,60.0,48.0,30.01,WNW,284,1.0,3.0,64,0.00,,,0.00,,2013-10-12 15:43:00,
2013-10-12 10:54:00,60.0,47.0,30.00,NNW,345,1.0,4.0,63,0.00,,,0.00,,2013-10-12 15:54:00,
2013-10-12 11:13:00,60.0,48.0,30.00,NNW,340,1.0,4.0,64,0.00,,,0.00,,2013-10-12 16:13:00,
2013-10-12 11:23:00,60.0,47.0,30.01,West,278,2.0,6.0,62,0.00,,,0.00,,2013-10-12 16:23:00,
2013-10-12 11:43:00,61.0,47.0,30.02,NW,311,1.0,5.0,60,0.00,,,0.00,,2013-10-12 16:43:00,
2013-10-12 11:53:00,62.0,49.0,30.01,WNW,284,1.0,5.0,62,0.00,,,0.00,,2013-10-12 16:53:00,
2013-10-12 12:13:00,65.0,49.0,30.01,NNW,333,1.0,8.0,56,0.00,,,0.00,,2013-10-12 17:13:00,
2013-10-12 12:23:00,67.0,47.0,30.02,NW,325,4.0,9.0,48,0.00,,,0.00,,2013-10-12 17:23:00,
2013-10-12 12:42:00,67.0,45.0,30.01,NNW,336,4.0,12.0,45,0.00,,,0.00,,2013-10-12 17:42:00,
2013-10-12 12:53:00,68.0,45.0,30.02,WNW,300,4.0,12.0,43,0.00,,,0.00,,2013-10-12 17:53:00,
2013-10-12 13:22:00,70.0,43.0,30.02,WNW,285,6.0,11.0,37,0.00,,,0.00,,2013-10-12 18:22:00,
2013-10-12 13:42:00,70.0,43.0,30.02,WNW,302,1.0,8.0,38,0.00,,,0.00,,2013-10-12 18:42:00,
2013-10-12 13:52:00,70.0,41.0,30.03,SSW,197,6.0,12.0,35,0.00,,,0.00,,2013-10-12 18:52:00,
2013-10-12 14:22:00,70.0,41.0,30.03,West,277,6.0,14.0,35,0.00,,,0.00,,2013-10-12 19:22:00,
2013-10-12 14:42:00,70.0,42.0,30.03,West,266,1.0,11.0,36,0.00,,,0.00,,2013-10-12 19:42:00,
2013-10-12 14:52:00,70.0,40.0,30.03,NW,305,7.0,13.0,34,0.00,,,0.00,,2013-10-12 19:52:00,
2013-10-12 15:22:00,71.0,40.0,30.05,WNW,285,4.0,9.0,33,0.00,,,0.00,,2013-10-12 20:22:00,
2013-10-12 15:52:00,71.0,40.0,30.05,WNW,292,5.0,12.0,32,0.00,,,0.00,,2013-10-12 20:52:00,
2013-10-12 16:11:00,71.0,39.0,30.05,WNW,300,4.0,13.0,31,0.00,,,0.00,,2013-10-12 21:11:00,
2013-10-12 16:22:00,71.0,38.0,30.05,WNW,289,4.0,10.0,30,0.00,,,0.00,,2013-10-12 21:22:00,
2013-10-12 16:43:00,71.0,35.0,30.05,NNW,340,5.0,9.0,27,0.00,,,0.00,,2013-10-12 21:43:00,
2013-10-12 16:54:00,70.0,36.0,30.06,North,349,3.0,9.0,29,0.00,,,0.00,,2013-10-12 21:54:00,
2013-10-12 17:13:00,70.0,34.0,30.07,WNW,298,4.0,11.0,27,0.00,,,0.00,,2013-10-12 22:13:00,
2013-10-12 17:24:00,69.0,35.0,30.07,NNW,348,3.0,10.0,28,0.00,,,0.00,,2013-10-12 22:24:00,
2013-10-12 17:54:00,68.0,35.0,30.08,NNW,331,1.0,11.0,30,0.00,,,0.00,,2013-10-12 22:54:00,
2013-10-12 18:12:00,67.0,35.0,30.09,NNW,337,0.0,5.0,31,0.00,,,0.00,,2013-10-12 23:12:00,
2013-10-12 18:22:00,65.0,36.0,30.09,NW,325,0.0,3.0,34,0.00,,,0.00,,2013-10-12 23:22:00,
2013-10-12 18:42:00,64.0,36.0,30.10,NNW,332,1.0,5.0,35,0.00,,,0.00,,2013-10-12 23:42:00,
2013-10-12 18:52:00,63.0,36.0,30.10,NW,326,0.0,2.0,37,0.00,,,0.00,,2013-10-12 23:52:00,
2013-10-12 19:12:00,62.0,37.0,30.10,NW,326,0.0,1.0,40,0.00,,,0.00,,2013-10-13 00:12:00,
2013-10-12 19:22:00,60.0,41.0,30.11,NW,326,0.0,0.0,50,0.00,,,0.00,,2013-10-13 00:22:00,
2013-10-12 19:42:00,58.0,42.0,30.11,NW,326,0.0,0.0,56,0.00,,,0.00,,2013-10-13 00:42:00,
2013-10-12 19:52:00,57.0,42.0,30.11,NW,326,0.0,0.0,58,0.00,,,0.00,,2013-10-13 00:52:00,
2013-10-12 20:12:00,55.0,41.0,30.12,NW,326,0.0,0.0,58,0.00,,,0.00,,2013-10-13 01:12:00,
2013-10-12 20:22:00,54.0,40.0,30.13,NW,326,0.0,0.0,60,0.00,,,0.00,,2013-10-13 01:22:00,
2013-10-12 20:42:00,53.0,41.0,30.13,NW,326,0.0,0.0,63,0.00,,,0.00,,2013-10-13 01:42:00,
2013-10-12 20:52:00,52.0,41.0,30.14,NW,326,0.0,0.0,65,0.00,,,0.00,,2013-10-13 01:52:00,
2013-10-12 21:11:00,51.0,40.0,30.14,NW,326,0.0,0.0,67,0.00,,,0.00,,2013-10-13 02:11:00,
2013-10-12 21:22:00,50.0,41.0,30.15,NW,326,0.0,0.0,72,0.00,,,0.00,,2013-10-13 02:22:00,
2013-10-12 21:42:00,49.0,41.0,30.15,NW,326,0.0,0.0,73,0.00,,,0.00,,2013-10-13 02:42:00,
2013-10-12 23:02:00,-999.0,-99.9,30.19,NW,326,0.0,0.0,-999,-99.99,,,-99.99,,2013-10-13 04:02:00,
2013-10-12 23:54:00,45.0,39.0,30.21,NW,326,0.0,1.0,79,0.00,,,0.00,,2013-10-13 04:54:00,